Terminal Aerodrome Forecast
Issued by NWS Sterling, VA

Current Version | Previous Version | Graphics & Text | Print | Product List | Glossary On
Versions: 1 2 3 4 5 6 7 8 9 10 11 12 13 14 15 16 17 18 19 20 21 22 23 24 25 26 27 28
000
FTUS41 KLWX 042320
TAFIAD
TAF
KIAD 042320Z 0500/0606 VRB03KT P6SM FEW015 BKN130
     FM050400 VRB03KT 5SM BR FEW015 SCT130
     FM050900 VRB03KT 1/2SM FG SCT002 SCT200
     FM051300 VRB03KT 5SM BR SCT200
     FM051400 VRB03KT P6SM SCT200
     FM052100 14004KT P6SM BKN050=

USA.gov is the U.S. government's official web portal to all federal, state and local government web resources and services.